This is the latest recevied weather packets stored in our database for station/object DG1GMY-13. If no packets are shown the sender has not sent any weather packets the latest 10 day(s).
| Time | Temp. | Humidity | Pressure | Rain* | Wind** | Luminosity | Snow |
|---|---|---|---|---|---|---|---|
| 1777757885 | 17.22° C | 56% | 1016.7 hPa | - | - | - | - |
| 1777756079 | 17.22° C | 57% | 1016.9 hPa | - | - | - | - |
| 1777754273 | 17.22° C | 59% | 1016.9 hPa | - | - | - | - |
| 1777752467 | 18.33° C | 51% | 1016.6 hPa | - | - | - | - |
| 1777750661 | 18.89° C | 51% | 1016.5 hPa | - | - | - | - |
| 1777748855 | 19.44° C | 49% | 1016.5 hPa | - | - | - | - |
| 1777747049 | 20° C | 49% | 1016.4 hPa | - | - | - | - |
| 1777745243 | 21.11° C | 48% | 1016.3 hPa | - | - | - | - |
| 1777743437 | 23.89° C | 41% | 1016.2 hPa | - | - | - | - |
| 1777741631 | 25.56° C | 35% | 1016.4 hPa | - | - | - | - |
| 1777739825 | 26.11° C | 34% | 1016.6 hPa | - | - | - | - |
| 1777738019 | 26.11° C | 33% | 1017 hPa | - | - | - | - |
| 1777736213 | 26.11° C | 34% | 1017.2 hPa | - | - | - | - |
| 1777734407 | 26.11° C | 34% | 1017.5 hPa | - | - | - | - |
| 1777730790 | 25.56° C | 33% | 1018.5 hPa | - | - | - | - |
| 1777728984 | 25° C | 35% | 1019.1 hPa | - | - | - | - |
| 1777727178 | 25.56° C | 33% | 1019.4 hPa | - | - | - | - |
| 1777725372 | 24.44° C | 35% | 1019.9 hPa | - | - | - | - |
| 1777723566 | 23.89° C | 36% | 1020.2 hPa | - | - | - | - |
| 1777721761 | 25° C | 35% | 1020.6 hPa | - | - | - | - |
| 1777719954 | 24.44° C | 35% | 1021.1 hPa | - | - | - | - |
| 1777718148 | 23.33° C | 39% | 1021.5 hPa | - | - | - | - |
| 1777716342 | 21.67° C | 40% | 1022 hPa | - | - | - | - |
| 1777714536 | 21.67° C | 42% | 1022.5 hPa | - | - | - | - |
| 1777712730 | 20° C | 43% | 1022.7 hPa | - | - | - | - |
* Rain since midnight (hover to see other rain measurements)
** Current wind speed in m/s (hover to see current wind gust speed)